Madeline — WDE3220 — position and weather

sailwx.info

Track history (hours):
 
Tides and Currents Weather Stations Pressure Air Temp Water Temp Dewpoint Dewpoint Depression Visibility Wind Speed Wind Dir Waves Ship Positions

Madeline

Owner: TUG MADELINE, LLC, NEW CASTLE, DE. More information available from US FCC via Universal Licensing System and Coast Guard Vessel Documentation Center.

Last reported at 2017-Aug-19 09:31 UTC. Time now 2017-Aug-19 09:29 UTC.
Position N 39°53' W 075°11'.

Length 23 m; draft 4.6 m.

Type: Tug. MMSI: 367335830.

Date/timePositionNaut miles runAvg speedWind from/ knotsBaromVisibWave heightAir tempDewpointWater temp
2017-Aug-19 09:31N 39°53' W 075°11'0 0.0
2017-Aug-19 09:01N 39°53' W 075°11'0 0.0
2017-Aug-19 08:31N 39°53' W 075°11'0 0.0
2017-Aug-19 08:01N 39°53' W 075°11'0 0.0
2017-Aug-19 07:31N 39°53' W 075°11'0 0.0
2017-Aug-19 07:01N 39°53' W 075°11'2 3.4
2017-Aug-19 06:30N 39°52' W 075°13'0 0.5
2017-Aug-19 06:00N 39°52' W 075°13'0 0.0
2017-Aug-19 05:30N 39°52' W 075°13'0 0.0
2017-Aug-19 05:00N 39°52' W 075°13'0 0.4
2017-Aug-19 04:30N 39°52' W 075°13'1 2.3
2017-Aug-19 04:00N 39°51' W 075°14'1 2.6
2017-Aug-19 03:31N 39°52' W 075°13'1 2.6
2017-Aug-19 03:00N 39°53' W 075°12'1 1.2
2017-Aug-19 02:30N 39°53' W 075°11'0 0.0
2017-Aug-19 02:00N 39°53' W 075°11'0 0.0
2017-Aug-19 01:30N 39°53' W 075°11'0 0.0
2017-Aug-19 01:00N 39°53' W 075°11'0 0.0
2017-Aug-19 00:30N 39°53' W 075°11'0 0.0
2017-Aug-19 00:00N 39°53' W 075°11'0 0.0
2017-Aug-18 23:30N 39°53' W 075°11'0 0.0
2017-Aug-18 23:01N 39°53' W 075°11'0 0.0
2017-Aug-18 22:30N 39°53' W 075°11'0 0.0
2017-Aug-18 22:00N 39°53' W 075°11'0 0.0
2017-Aug-18 21:30N 39°53' W 075°11'0 0.0
2017-Aug-18 21:00N 39°53' W 075°11'0 0.0
2017-Aug-18 20:30N 39°53' W 075°11'0 0.0
2017-Aug-18 20:01N 39°53' W 075°11'0 0.0
2017-Aug-18 19:30N 39°53' W 075°11'0 0.0
2017-Aug-18 19:01N 39°53' W 075°11'0 0.0
2017-Aug-18 18:30N 39°53' W 075°11'0 0.0
2017-Aug-18 18:00N 39°53' W 075°11'0 0.0
2017-Aug-18 17:30N 39°53' W 075°11'0 0.0
2017-Aug-18 17:01N 39°53' W 075°11'0 0.0
2017-Aug-18 16:30N 39°53' W 075°11'0 0.6
2017-Aug-18 16:00N 39°53' W 075°12'0 0.4
2017-Aug-18 15:31N 39°53' W 075°11'0 0.5
2017-Aug-18 15:01N 39°53' W 075°11'0 0.0
2017-Aug-18 14:00N 39°53' W 075°11'0 0.6
2017-Aug-18 13:31N 39°53' W 075°11'0 0.0
2017-Aug-18 13:00N 39°53' W 075°11'0 0.0
2017-Aug-18 12:30N 39°53' W 075°11'0 0.0
2017-Aug-18 12:00N 39°53' W 075°11'0 0.0
2017-Aug-18 11:31N 39°53' W 075°11'0 0.0
2017-Aug-18 11:00N 39°53' W 075°11'0 0.0
2017-Aug-18 10:30N 39°53' W 075°11'0 0.0
2017-Aug-18 10:01N 39°53' W 075°11'0 0.0
2017-Aug-18 09:31N 39°53' W 075°11'0 0.0
2017-Aug-18 09:00N 39°53' W 075°11'0 0.0
2017-Aug-18 08:31N 39°53' W 075°11'0 0.0
2017-Aug-18 08:00N 39°53' W 075°11'0 0.0
2017-Aug-18 07:30N 39°53' W 075°11'0 0.0
2017-Aug-18 07:00N 39°53' W 075°11'0 0.0
2017-Aug-18 06:30N 39°53' W 075°11'0 0.0
2017-Aug-18 06:00N 39°53' W 075°11'0 0.0
2017-Aug-18 05:30N 39°53' W 075°11'0 0.0
2017-Aug-18 05:01N 39°53' W 075°11'0 0.0
2017-Aug-18 04:30N 39°53' W 075°11'0 0.0
2017-Aug-18 04:00N 39°53' W 075°11'0 0.0
2017-Aug-18 03:30N 39°53' W 075°11'0 0.0
2017-Aug-18 03:00N 39°53' W 075°11'0 0.0
2017-Aug-18 02:30N 39°53' W 075°11'0 0.0
2017-Aug-18 02:01N 39°53' W 075°11'0 0.0
2017-Aug-18 01:31N 39°53' W 075°11'0 0.0
2017-Aug-18 01:00N 39°53' W 075°11'0 0.0
2017-Aug-18 00:30N 39°53' W 075°11'0 0.0
2017-Aug-18 00:00N 39°53' W 075°11'0 0.9
2017-Aug-17 23:30N 39°53' W 075°11'2 4.6
2017-Aug-17 23:00N 39°54' W 075°08'2 4.1
2017-Aug-17 22:31N 39°53' W 075°10'1 1.4
2017-Aug-17 22:00N 39°53' W 075°11'0 0.0
2017-Aug-17 21:31N 39°53' W 075°11'0 0.0
2017-Aug-17 21:01N 39°53' W 075°11'0 0.0
2017-Aug-17 20:31N 39°53' W 075°11'0 0.0
2017-Aug-17 20:01N 39°53' W 075°11'0 0.0
2017-Aug-17 19:30N 39°53' W 075°11'0 0.0
2017-Aug-17 19:00N 39°53' W 075°11'2 4.6
2017-Aug-17 18:31N 39°54' W 075°08'5 9.4
2017-Aug-17 18:00N 39°58' W 075°07'2 4.1
2017-Aug-17 17:31N 39°59' W 075°04'3 6.2
2017-Aug-17 17:01N 39°58' W 075°08'3 6.1
2017-Aug-17 16:30N 39°55' W 075°08'3 5.7
2017-Aug-17 16:01N 39°53' W 075°11'0 0.0
2017-Aug-17 15:31N 39°53' W 075°11'0 0.0
2017-Aug-17 15:00N 39°53' W 075°11'0 0.0
2017-Aug-17 14:31N 39°53' W 075°11'0 0.0
2017-Aug-17 14:00N 39°53' W 075°11'0 0.0
2017-Aug-17 13:30N 39°53' W 075°11'0 0.0
2017-Aug-17 13:01N 39°53' W 075°11'0 0.0
2017-Aug-17 12:30N 39°53' W 075°11'0 0.0
2017-Aug-17 12:00N 39°53' W 075°11'0 0.0
2017-Aug-17 11:31N 39°53' W 075°11'0 0.0
2017-Aug-17 11:00N 39°53' W 075°11'0 0.0
2017-Aug-17 10:31N 39°53' W 075°11'0 0.0
2017-Aug-17 10:01N 39°53' W 075°11'0 0.0
2017-Aug-17 09:31N 39°53' W 075°11'0 0.0
2017-Aug-17 09:01N 39°53' W 075°11'0 0.0
2017-Aug-17 08:31N 39°53' W 075°11'0 0.0
2017-Aug-17 08:00N 39°53' W 075°11'0 0.0
2017-Aug-17 07:30N 39°53' W 075°11'0 0.0
2017-Aug-17 07:00N 39°53' W 075°11'0 0.0
2017-Aug-17 06:30N 39°53' W 075°11'0 0.0
2017-Aug-17 06:01N 39°53' W 075°11'0 0.0
2017-Aug-17 05:30N 39°53' W 075°11'0 0.0
2017-Aug-17 05:01N 39°53' W 075°11'0 0.0
2017-Aug-17 04:30N 39°53' W 075°11'0 0.0
2017-Aug-17 04:00N 39°53' W 075°11'0 0.0
2017-Aug-17 03:30N 39°53' W 075°11'0 0.0
2017-Aug-17 03:00N 39°53' W 075°11'0 0.0
2017-Aug-17 02:30N 39°53' W 075°11'0 0.0
2017-Aug-17 02:00N 39°53' W 075°11'0 0.0
2017-Aug-17 01:30N 39°53' W 075°11'0 0.0
2017-Aug-17 01:00N 39°53' W 075°11'0 0.0
2017-Aug-17 00:31N 39°53' W 075°11'2 3.5
2017-Aug-17 00:00N 39°52' W 075°13'0 0.1
2017-Aug-16 23:30N 39°52' W 075°13'1 2.2
2017-Aug-16 23:01N 39°53' W 075°12'1 1.4
2017-Aug-16 22:30N 39°53' W 075°11'0 0.0
2017-Aug-16 22:00N 39°53' W 075°11'0 0.0
2017-Aug-16 21:30N 39°53' W 075°11'0 0.0
2017-Aug-16 21:00N 39°53' W 075°11'0 0.0
2017-Aug-16 20:30N 39°53' W 075°11'0 0.0
2017-Aug-16 20:00N 39°53' W 075°11'0 0.0
2017-Aug-16 19:31N 39°53' W 075°11'0 0.0
2017-Aug-16 19:00N 39°53' W 075°11'0 0.0
2017-Aug-16 18:31N 39°53' W 075°11'0 0.0
2017-Aug-16 18:00N 39°53' W 075°11'0 0.0
2017-Aug-16 17:30N 39°53' W 075°11'0 0.0
2017-Aug-16 17:01N 39°53' W 075°11'0 0.0
2017-Aug-16 16:30N 39°53' W 075°11'1 2.7
2017-Aug-16 16:01N 39°52' W 075°13'3 6.4
2017-Aug-16 15:30N 39°51' W 075°16'0 0.0
2017-Aug-16 15:00N 39°51' W 075°16'0 0.3
2017-Aug-16 14:30N 39°51' W 075°16'2 3.8
2017-Aug-16 14:01N 39°51' W 075°19'1 2.7
2017-Aug-16 13:30N 39°51' W 075°21'0 0.0
2017-Aug-16 13:00N 39°51' W 075°21'0 0.0
2017-Aug-16 12:31N 39°51' W 075°21'0 0.0
2017-Aug-16 12:01N 39°51' W 075°21'0 0.0
2017-Aug-16 11:31N 39°51' W 075°21'0 0.0
2017-Aug-16 11:01N 39°51' W 075°21'4 7.6
2017-Aug-16 10:31N 39°49' W 075°24'0 0.0
2017-Aug-16 10:00N 39°49' W 075°24'0 0.0
2017-Aug-16 09:31N 39°49' W 075°24'0 0.0
2017-Aug-16 09:01N 39°49' W 075°24'0 0.7
2017-Aug-16 08:31N 39°48' W 075°24'0 0.2
2017-Aug-16 08:01N 39°48' W 075°24'1 2.4
2017-Aug-16 07:30N 39°48' W 075°26'0 0.0
2017-Aug-16 07:00N 39°48' W 075°26'0 0.0
2017-Aug-16 06:30N 39°48' W 075°26'0 0.0
2017-Aug-16 06:00N 39°48' W 075°26'0 0.0
2017-Aug-16 05:30N 39°48' W 075°26'0 0.0
2017-Aug-16 05:01N 39°48' W 075°26'0 0.0
2017-Aug-16 04:30N 39°48' W 075°26'0 0.0
2017-Aug-16 04:00N 39°48' W 075°26'0 0.0
2017-Aug-16 03:30N 39°48' W 075°26'0 0.0
2017-Aug-16 03:00N 39°48' W 075°26'0 0.0
2017-Aug-16 02:30N 39°48' W 075°26'3 5.9
2017-Aug-16 02:01N 39°50' W 075°23'612.0
2017-Aug-16 01:30N 39°51' W 075°15'4 7.6
2017-Aug-16 01:00N 39°53' W 075°11'0 0.4
2017-Aug-16 00:30N 39°53' W 075°11'2 3.8
2017-Aug-16 00:00N 39°52' W 075°13'0 0.0
2017-Aug-15 23:30N 39°52' W 075°13'0 0.0
2017-Aug-15 23:01N 39°52' W 075°13'0 0.4
2017-Aug-15 22:31N 39°52' W 075°13'3 5.2
2017-Aug-15 22:00N 39°51' W 075°16'4 8.5
2017-Aug-15 21:31N 39°50' W 075°22'4 8.1
2017-Aug-15 21:00N 39°48' W 075°26'5 9.4
2017-Aug-15 20:31N 39°44' W 075°30'1 2.7
2017-Aug-15 20:00N 39°43' W 075°31'0 0.0
2017-Aug-15 19:30N 39°43' W 075°31'0 0.0
2017-Aug-15 19:00N 39°43' W 075°31'0 0.0
2017-Aug-15 18:30N 39°43' W 075°31'0 0.0
2017-Aug-15 18:00N 39°43' W 075°31'0 0.0
2017-Aug-15 17:30N 39°43' W 075°31'0 0.0
2017-Aug-15 17:00N 39°43' W 075°31'0 0.0
2017-Aug-15 16:30N 39°43' W 075°31'0 0.0
2017-Aug-15 16:00N 39°43' W 075°31'0 0.0
2017-Aug-15 15:30N 39°43' W 075°31'0 0.0
2017-Aug-15 15:00N 39°43' W 075°31'0 0.0
2017-Aug-15 14:30N 39°43' W 075°31'0 0.0
2017-Aug-15 14:00N 39°43' W 075°31'0 0.0
2017-Aug-15 13:30N 39°43' W 075°31'0 0.0
2017-Aug-15 13:00N 39°43' W 075°31'0 0.0
2017-Aug-15 12:30N 39°43' W 075°31'0 0.0
2017-Aug-15 12:00N 39°43' W 075°31'0 0.0
2017-Aug-15 11:30N 39°43' W 075°31'0 0.0
2017-Aug-15 11:00N 39°43' W 075°31'0 0.0
2017-Aug-15 10:30N 39°43' W 075°31'1 2.6
2017-Aug-15 10:00N 39°44' W 075°30'510.9
2017-Aug-15 09:31N 39°48' W 075°25'0 0.6
2017-Aug-15 09:00N 39°48' W 075°25'1 1.4
2017-Aug-15 08:30N 39°49' W 075°24'1 1.5
2017-Aug-15 08:01N 39°49' W 075°23'1 2.1
2017-Aug-15 07:30N 39°49' W 075°25'5 9.8
2017-Aug-15 07:00N 39°51' W 075°19'510.9
2017-Aug-15 06:31N 39°52' W 075°12'1 2.5
2017-Aug-15 06:01N 39°53' W 075°11'0 0.0
2017-Aug-15 05:30N 39°53' W 075°11'0 0.0
2017-Aug-15 05:00N 39°53' W 075°11'0 0.0
2017-Aug-15 04:31N 39°53' W 075°11'0 0.0
2017-Aug-15 04:00N 39°53' W 075°11'0 0.0
2017-Aug-15 03:30N 39°53' W 075°11'0 0.0
2017-Aug-15 03:00N 39°53' W 075°11'0 0.0
2017-Aug-15 02:31N 39°53' W 075°11'0 0.0
2017-Aug-15 02:00N 39°53' W 075°11'0 0.0
2017-Aug-15 01:31N 39°53' W 075°11'0 0.0
2017-Aug-15 01:01N 39°53' W 075°11'0 0.0
2017-Aug-15 00:31N 39°53' W 075°11'0 0.0
2017-Aug-15 00:00N 39°53' W 075°11'0 0.0
2017-Aug-14 23:31N 39°53' W 075°11'2 3.8
2017-Aug-14 23:00N 39°52' W 075°13'2 3.3
2017-Aug-14 22:31N 39°51' W 075°15'1 1.4
2017-Aug-14 22:00N 39°51' W 075°16'0 0.0
2017-Aug-14 21:31N 39°51' W 075°16'0 0.0
2017-Aug-14 21:01N 39°51' W 075°16'0 0.0
2017-Aug-14 20:30N 39°51' W 075°16'0 0.3
2017-Aug-14 20:01N 39°51' W 075°16'0 0.3
2017-Aug-14 19:31N 39°51' W 075°16'0 0.0
2017-Aug-14 19:00N 39°51' W 075°16'0 0.0
2017-Aug-14 18:30N 39°51' W 075°16'0 0.0
2017-Aug-14 18:00N 39°51' W 075°16'0 0.0
2017-Aug-14 17:30N 39°51' W 075°16'0 0.0
2017-Aug-14 17:01N 39°51' W 075°16'0 0.0
2017-Aug-14 16:31N 39°51' W 075°16'0 0.0
2017-Aug-14 16:00N 39°51' W 075°16'0 0.0
2017-Aug-14 15:31N 39°51' W 075°16'0 0.0
2017-Aug-14 15:00N 39°51' W 075°16'0 0.7
2017-Aug-14 14:30N 39°51' W 075°16'0 0.0
2017-Aug-14 14:00N 39°51' W 075°16'0 0.4
2017-Aug-14 13:31N 39°51' W 075°16'2 4.2
2017-Aug-14 13:00N 39°51' W 075°19'2 4.6
2017-Aug-14 12:31N 39°51' W 075°16'0 0.6
2017-Aug-14 12:00N 39°51' W 075°16'0 0.4
2017-Aug-14 11:30N 39°51' W 075°16'0 0.0
2017-Aug-14 11:00N 39°51' W 075°16'0 0.0
2017-Aug-14 10:30N 39°51' W 075°16'0 0.0
2017-Aug-14 10:01N 39°51' W 075°16'0 0.4
2017-Aug-14 09:31N 39°51' W 075°16'0 0.1
2017-Aug-14 09:00N 39°51' W 075°16'1 2.0
2017-Aug-14 08:30N 39°51' W 075°15'2 4.8
2017-Aug-14 08:01N 39°52' W 075°12'1 2.5
2017-Aug-14 07:31N 39°53' W 075°11'0 0.0
2017-Aug-14 07:00N 39°53' W 075°11'0 0.0
2017-Aug-14 06:31N 39°53' W 075°11'0 0.0
2017-Aug-14 06:01N 39°53' W 075°11'0 0.0
2017-Aug-14 05:30N 39°53' W 075°11'0 0.0
2017-Aug-14 05:00N 39°53' W 075°11'0 0.0
2017-Aug-14 04:30N 39°53' W 075°11'0 0.0
2017-Aug-14 04:00N 39°53' W 075°11'0 0.0
2017-Aug-14 03:30N 39°53' W 075°11'0 0.0
2017-Aug-14 03:00N 39°53' W 075°11'0 0.0
2017-Aug-14 02:31N 39°53' W 075°11'0 0.0
2017-Aug-14 02:01N 39°53' W 075°11'0 0.0
2017-Aug-14 01:31N 39°53' W 075°11'0 0.0
2017-Aug-14 01:00N 39°53' W 075°11'0 0.0
2017-Aug-14 00:30N 39°53' W 075°11'0 0.0
2017-Aug-14 00:00N 39°53' W 075°11'0 0.0
2017-Aug-13 23:30N 39°53' W 075°11'0 0.4
2017-Aug-13 23:00N 39°53' W 075°11'0 0.3
2017-Aug-13 22:31N 39°53' W 075°11'2 4.1
2017-Aug-13 22:01N 39°52' W 075°13'0 0.0
2017-Aug-13 21:30N 39°52' W 075°13'0 0.0
2017-Aug-13 21:00N 39°52' W 075°13'0 0.2
2017-Aug-13 20:30N 39°52' W 075°13'1 1.7
2017-Aug-13 20:00N 39°52' W 075°12'1 2.3
2017-Aug-13 19:30N 39°53' W 075°11'1 2.9
2017-Aug-13 19:00N 39°53' W 075°09'1 2.6
2017-Aug-13 18:30N 39°54' W 075°08'3 5.6
2017-Aug-13 18:00N 39°56' W 075°08'4 7.3
2017-Aug-13 17:30N 39°59' W 075°04'0 0.1
2017-Aug-13 17:01N 39°59' W 075°04'1 2.4
2017-Aug-13 16:30N 39°59' W 075°06'0 0.2
2017-Aug-13 16:00N 39°59' W 075°06'0 0.0
2017-Aug-13 15:30N 39°59' W 075°06'0 0.0
2017-Aug-13 15:00N 39°59' W 075°06'0 0.0
2017-Aug-13 14:31N 39°59' W 075°06'2 4.3
2017-Aug-13 14:00N 39°57' W 075°08'3 6.5
2017-Aug-13 13:31N 39°54' W 075°08'4 7.4
2017-Aug-13 13:01N 39°52' W 075°12'3 6.6
2017-Aug-13 12:31N 39°51' W 075°16'0 0.0
2017-Aug-13 12:00N 39°51' W 075°16'0 0.0
2017-Aug-13 11:30N 39°51' W 075°16'1 1.4
2017-Aug-13 11:01N 39°51' W 075°17'1 1.4
2017-Aug-13 10:30N 39°51' W 075°16'0 0.2
2017-Aug-13 10:01N 39°51' W 075°16'2 3.8
2017-Aug-13 09:30N 39°51' W 075°14'0 0.2
2017-Aug-13 09:00N 39°51' W 075°14'0 0.0
2017-Aug-13 08:30N 39°51' W 075°14'0 0.0
2017-Aug-13 08:00N 39°51' W 075°14'0 0.3
2017-Aug-13 07:31N 39°51' W 075°14'1 2.3
2017-Aug-13 07:01N 39°52' W 075°13'0 0.3
2017-Aug-13 06:31N 39°52' W 075°13'2 4.1
2017-Aug-13 06:00N 39°51' W 075°15'3 6.4
2017-Aug-13 05:30N 39°51' W 075°19'3 6.0
2017-Aug-13 05:01N 39°49' W 075°23'3 5.3
2017-Aug-13 04:30N 39°48' W 075°26'0 0.0
2017-Aug-13 04:00N 39°48' W 075°26'0 0.0
2017-Aug-13 03:30N 39°48' W 075°26'0 0.0
2017-Aug-13 03:00N 39°48' W 075°26'0 0.0
2017-Aug-13 02:30N 39°48' W 075°26'0 0.0
2017-Aug-13 02:00N 39°48' W 075°26'0 0.0
2017-Aug-13 01:31N 39°48' W 075°26'0 0.0
2017-Aug-13 01:00N 39°48' W 075°26'0 0.0
2017-Aug-13 00:31N 39°48' W 075°26'1 1.9
2017-Aug-13 00:00N 39°48' W 075°25'1 2.1
2017-Aug-12 23:31N 39°49' W 075°24'2 4.8
2017-Aug-12 23:00N 39°51' W 075°21'4 8.7
2017-Aug-12 22:30N 39°51' W 075°16'5 9.3
2017-Aug-12 22:00N 39°53' W 075°10'3 6.9
2017-Aug-12 21:31N 39°56' W 075°08'3 6.3
2017-Aug-12 21:00N 39°59' W 075°06'1 1.9
2017-Aug-12 20:30N 39°59' W 075°04'0 0.0
2017-Aug-12 20:01N 39°59' W 075°04'0 0.0
2017-Aug-12 19:30N 39°59' W 075°04'0 0.1
2017-Aug-12 19:00N 39°59' W 075°04'1 1.6
2017-Aug-12 18:30N 39°59' W 075°05'0 0.0
2017-Aug-12 18:00N 39°59' W 075°05'0 0.0
2017-Aug-12 17:30N 39°59' W 075°05'0 0.0
2017-Aug-12 17:01N 39°59' W 075°05'0 0.0
2017-Aug-12 16:30N 39°59' W 075°05'0 0.0
2017-Aug-12 16:00N 39°59' W 075°05'0 0.0
2017-Aug-12 15:31N 39°59' W 075°05'0 0.0
2017-Aug-12 15:01N 39°59' W 075°05'0 0.0
2017-Aug-12 14:31N 39°59' W 075°05'0 0.0
2017-Aug-12 14:00N 39°59' W 075°05'0 0.0
2017-Aug-12 13:30N 39°59' W 075°05'0 0.0
2017-Aug-12 13:01N 39°59' W 075°05'0 0.0
2017-Aug-12 12:30N 39°59' W 075°05'1 1.0
2017-Aug-12 12:00N 39°58' W 075°06'3 6.1
2017-Aug-12 11:30N 39°56' W 075°08'3 6.4
2017-Aug-12 11:00N 39°53' W 075°09'0 0.3
2017-Aug-12 10:31N 39°53' W 075°09'0 0.2
2017-Aug-12 10:01N 39°53' W 075°10'2 3.4
2017-Aug-12 09:30N 39°53' W 075°12'1 1.5
2017-Aug-12 09:00N 39°54' W 075°12'0 0.8
2017-Aug-12 08:30N 39°54' W 075°12'1 2.2
2017-Aug-12 08:00N 39°53' W 075°11'0 0.0
2017-Aug-12 07:30N 39°53' W 075°11'0 0.0
2017-Aug-12 07:00N 39°53' W 075°11'0 0.0
2017-Aug-12 06:30N 39°53' W 075°11'0 0.0
2017-Aug-12 06:00N 39°53' W 075°11'0 0.0
2017-Aug-12 05:30N 39°53' W 075°11'0 0.0
2017-Aug-12 05:00N 39°53' W 075°11'0 0.0
2017-Aug-12 04:30N 39°53' W 075°11'0 0.0
2017-Aug-12 04:00N 39°53' W 075°11'0 0.0
2017-Aug-12 03:30N 39°53' W 075°11'0 0.0
2017-Aug-12 03:01N 39°53' W 075°11'0 0.0
2017-Aug-12 02:30N 39°53' W 075°11'0 0.0
2017-Aug-12 02:00N 39°53' W 075°11'0 0.0
2017-Aug-12 01:30N 39°53' W 075°11'0 0.0
2017-Aug-12 01:01N 39°53' W 075°11'0 0.0
2017-Aug-12 00:30N 39°53' W 075°11'0 0.0
2017-Aug-12 00:00N 39°53' W 075°11'0 0.0
2017-Aug-11 23:30N 39°53' W 075°11'2 3.7
2017-Aug-11 23:00N 39°52' W 075°13'0 0.1
2017-Aug-11 22:30N 39°52' W 075°13'1 1.4
2017-Aug-11 22:01N 39°53' W 075°12'1 2.3
2017-Aug-11 21:30N 39°53' W 075°11'0 0.0
2017-Aug-11 21:00N 39°53' W 075°11'0 0.0
2017-Aug-11 20:30N 39°53' W 075°11'0 0.0
2017-Aug-11 20:00N 39°53' W 075°11'0 0.0
2017-Aug-11 19:31N 39°53' W 075°11'0 0.0
2017-Aug-11 19:00N 39°53' W 075°11'0 0.0
2017-Aug-11 18:30N 39°53' W 075°11'0 0.0
2017-Aug-11 18:00N 39°53' W 075°11'0 0.0
2017-Aug-11 17:31N 39°53' W 075°11'0 0.0
2017-Aug-11 17:00N 39°53' W 075°11'0 0.0
2017-Aug-11 16:30N 39°53' W 075°11'0 0.0
2017-Aug-11 16:00N 39°53' W 075°11'0 0.0
2017-Aug-11 15:30N 39°53' W 075°11'0 0.0
2017-Aug-11 15:00N 39°53' W 075°11'0 0.0
2017-Aug-11 14:00N 39°53' W 075°11'0 0.0
2017-Aug-11 13:30N 39°53' W 075°11'0 0.0
2017-Aug-11 13:00N 39°53' W 075°11'0 0.0
2017-Aug-11 12:30N 39°53' W 075°11'0 1.0
2017-Aug-11 12:01N 39°53' W 075°11'2 4.5
2017-Aug-11 11:30N 39°54' W 075°08'1 1.5
2017-Aug-11 11:01N 39°53' W 075°08'2 4.1
2017-Aug-11 10:31N 39°53' W 075°11'0 0.8
2017-Aug-11 10:00N 39°53' W 075°11'0 0.0
2017-Aug-11 09:30N 39°53' W 075°11'0 0.0
2017-Aug-11 09:01N 39°53' W 075°11'0 0.0
2017-Aug-11 08:30N 39°53' W 075°11'0 0.0
2017-Aug-11 08:01N 39°53' W 075°11'0 0.0
2017-Aug-11 07:31N 39°53' W 075°11'0 0.0
2017-Aug-11 07:00N 39°53' W 075°11'0 0.0
2017-Aug-11 06:31N 39°53' W 075°11'0 0.0
2017-Aug-11 06:01N 39°53' W 075°11'0 0.0
2017-Aug-11 05:30N 39°53' W 075°11'0 0.0
2017-Aug-11 05:01N 39°53' W 075°11'0 0.0
2017-Aug-11 04:30N 39°53' W 075°11'0 0.0
2017-Aug-11 04:00N 39°53' W 075°11'0 0.0
2017-Aug-11 03:31N 39°53' W 075°11'0 0.0
2017-Aug-11 03:00N 39°53' W 075°11'0 0.0
2017-Aug-11 02:31N 39°53' W 075°11'0 0.0
2017-Aug-11 02:00N 39°53' W 075°11'0 0.0
2017-Aug-11 01:30N 39°53' W 075°11'0 0.0
2017-Aug-11 01:00N 39°53' W 075°11'0 0.0
2017-Aug-11 00:30N 39°53' W 075°11'0 0.0
2017-Aug-11 00:00N 39°53' W 075°11'0 0.0
2017-Aug-10 23:30N 39°53' W 075°11'0 0.0
2017-Aug-10 23:01N 39°53' W 075°11'0 0.0
2017-Aug-10 22:30N 39°53' W 075°11'1 1.6
2017-Aug-10 22:00N 39°54' W 075°12'0 0.7
2017-Aug-10 21:30N 39°54' W 075°12'1 2.0
2017-Aug-10 21:00N 39°53' W 075°12'3 5.4
2017-Aug-10 20:30N 39°51' W 075°15'1 1.8
2017-Aug-10 20:00N 39°51' W 075°16'0 0.0
2017-Aug-10 19:30N 39°51' W 075°16'0 0.8
2017-Aug-10 19:00N 39°51' W 075°16'3 5.3
2017-Aug-10 18:30N 39°52' W 075°13'2 4.0
2017-Aug-10 18:01N 39°53' W 075°11'0 0.0
2017-Aug-10 17:30N 39°53' W 075°11'0 0.0
2017-Aug-10 17:00N 39°53' W 075°11'0 0.0
2017-Aug-10 16:30N 39°53' W 075°11'0 0.0
2017-Aug-10 16:00N 39°53' W 075°11'0 0.0
2017-Aug-10 15:30N 39°53' W 075°11'0 0.0
2017-Aug-10 15:00N 39°53' W 075°11'0 0.0
2017-Aug-10 14:30N 39°53' W 075°11'0 0.0
2017-Aug-10 14:00N 39°53' W 075°11'0 0.0
2017-Aug-10 13:31N 39°53' W 075°11'0 0.0
2017-Aug-10 13:01N 39°53' W 075°11'0 0.0
2017-Aug-10 12:30N 39°53' W 075°11'0 0.1
2017-Aug-10 12:01N 39°53' W 075°11'4 8.2
2017-Aug-10 11:30N 39°57' W 075°08'4 7.7
2017-Aug-10 11:00N 39°59' W 075°04'0 0.0
2017-Aug-10 10:30N 39°59' W 075°04'0 0.5
2017-Aug-10 10:00N 39°59' W 075°04'0 0.0
2017-Aug-10 09:30N 39°59' W 075°04'0 0.0
2017-Aug-10 09:00N 39°59' W 075°04'0 0.2
2017-Aug-10 08:31N 39°59' W 075°04'1 1.5
2017-Aug-10 08:00N 39°59' W 075°05'2 4.7
2017-Aug-10 07:30N 39°57' W 075°08'2 3.1
2017-Aug-10 07:01N 39°58' W 075°06'1 2.9
2017-Aug-10 06:30N 39°57' W 075°08'5 9.5
2017-Aug-10 06:00N 39°53' W 075°10'5 9.8
2017-Aug-10 05:31N 39°51' W 075°16'0 0.1
2017-Aug-10 05:00N 39°51' W 075°16'3 5.3
2017-Aug-10 04:30N 39°52' W 075°13'2 3.4
2017-Aug-10 04:01N 39°53' W 075°11'0 0.0
2017-Aug-10 03:31N 39°53' W 075°11'0 0.0
2017-Aug-10 03:00N 39°53' W 075°11'0 0.0
2017-Aug-10 02:30N 39°53' W 075°11'0 0.0
2017-Aug-10 02:00N 39°53' W 075°11'0 0.0
2017-Aug-10 01:30N 39°53' W 075°11'0 0.0
2017-Aug-10 01:00N 39°53' W 075°11'0 0.0
2017-Aug-10 00:30N 39°53' W 075°11'0 0.0
2017-Aug-10 00:00N 39°53' W 075°11'0 0.0
2017-Aug-09 23:30N 39°53' W 075°11'0 0.0
2017-Aug-09 23:00N 39°53' W 075°11'0 0.0
2017-Aug-09 22:30N 39°53' W 075°11'0 0.0
2017-Aug-09 22:00N 39°53' W 075°11'0 0.0
2017-Aug-09 21:30N 39°53' W 075°11'0 0.0
2017-Aug-09 21:00N 39°53' W 075°11'0 0.0
2017-Aug-09 20:30N 39°53' W 075°11'0 0.0
2017-Aug-09 20:00N 39°53' W 075°11'0 0.0
2017-Aug-09 19:30N 39°53' W 075°11'0 0.0
2017-Aug-09 19:00N 39°53' W 075°11'0 0.0
2017-Aug-09 18:30N 39°53' W 075°11'0 0.0
2017-Aug-09 18:00N 39°53' W 075°11'0 0.0
2017-Aug-09 17:30N 39°53' W 075°11'0 0.0
2017-Aug-09 17:00N 39°53' W 075°11'0 0.0
2017-Aug-09 16:30N 39°53' W 075°11'0 0.0
2017-Aug-09 16:00N 39°53' W 075°11'0 0.0
2017-Aug-09 15:30N 39°53' W 075°11'0 0.0
2017-Aug-09 15:00N 39°53' W 075°11'0 0.0
2017-Aug-09 14:30N 39°53' W 075°11'1 2.0
2017-Aug-09 14:00N 39°53' W 075°12'3 6.1
2017-Aug-09 13:30N 39°51' W 075°16'2 4.4
2017-Aug-09 13:00N 39°52' W 075°13'1 1.6
2017-Aug-09 12:30N 39°52' W 075°14'2 3.5
2017-Aug-09 12:00N 39°51' W 075°16'0 0.0
2017-Aug-09 11:30N 39°51' W 075°16'0 0.2
2017-Aug-09 11:00N 39°51' W 075°16'0 0.2
2017-Aug-09 10:30N 39°51' W 075°16'1 1.5
2017-Aug-09 10:00N 39°51' W 075°17'  
Track history (hours):
 
Tides and Currents Weather Stations Pressure Air Temp Water Temp Dewpoint Dewpoint Depression Visibility Wind Speed Wind Dir Waves Ship Positions

Madeline

Owner: TUG MADELINE, LLC, NEW CASTLE, DE. More information available from US FCC via Universal Licensing System and Coast Guard Vessel Documentation Center.

Last reported at 2017-Aug-19 09:31 UTC. Time now 2017-Aug-19 09:29 UTC.
Position N 39°53' W 075°11'.

Length 23 m; draft 4.6 m.

Type: Tug. MMSI: 367335830.

Date/timePositionNaut miles runAvg speedWind from/ knotsBaromVisibWave heightAir tempDewpointWater temp
2017-Aug-19 09:31N 39°53' W 075°11'0 0.0
2017-Aug-19 09:01N 39°53' W 075°11'0 0.0
2017-Aug-19 08:31N 39°53' W 075°11'0 0.0
2017-Aug-19 08:01N 39°53' W 075°11'0 0.0
2017-Aug-19 07:31N 39°53' W 075°11'0 0.0
2017-Aug-19 07:01N 39°53' W 075°11'2 3.4
2017-Aug-19 06:30N 39°52' W 075°13'0 0.5
2017-Aug-19 06:00N 39°52' W 075°13'0 0.0
2017-Aug-19 05:30N 39°52' W 075°13'0 0.0
2017-Aug-19 05:00N 39°52' W 075°13'0 0.4
2017-Aug-19 04:30N 39°52' W 075°13'1 2.3
2017-Aug-19 04:00N 39°51' W 075°14'1 2.6
2017-Aug-19 03:31N 39°52' W 075°13'1 2.6
2017-Aug-19 03:00N 39°53' W 075°12'1 1.2
2017-Aug-19 02:30N 39°53' W 075°11'0 0.0
2017-Aug-19 02:00N 39°53' W 075°11'0 0.0
2017-Aug-19 01:30N 39°53' W 075°11'0 0.0
2017-Aug-19 01:00N 39°53' W 075°11'0 0.0
2017-Aug-19 00:30N 39°53' W 075°11'0 0.0
2017-Aug-19 00:00N 39°53' W 075°11'0 0.0
2017-Aug-18 23:30N 39°53' W 075°11'0 0.0
2017-Aug-18 23:01N 39°53' W 075°11'0 0.0
2017-Aug-18 22:30N 39°53' W 075°11'0 0.0
2017-Aug-18 22:00N 39°53' W 075°11'0 0.0
2017-Aug-18 21:30N 39°53' W 075°11'0 0.0
2017-Aug-18 21:00N 39°53' W 075°11'0 0.0
2017-Aug-18 20:30N 39°53' W 075°11'0 0.0
2017-Aug-18 20:01N 39°53' W 075°11'0 0.0
2017-Aug-18 19:30N 39°53' W 075°11'0 0.0
2017-Aug-18 19:01N 39°53' W 075°11'0 0.0
2017-Aug-18 18:30N 39°53' W 075°11'0 0.0
2017-Aug-18 18:00N 39°53' W 075°11'0 0.0
2017-Aug-18 17:30N 39°53' W 075°11'0 0.0
2017-Aug-18 17:01N 39°53' W 075°11'0 0.0
2017-Aug-18 16:30N 39°53' W 075°11'0 0.6
2017-Aug-18 16:00N 39°53' W 075°12'0 0.4
2017-Aug-18 15:31N 39°53' W 075°11'0 0.5
2017-Aug-18 15:01N 39°53' W 075°11'0 0.0
2017-Aug-18 14:00N 39°53' W 075°11'0 0.6
2017-Aug-18 13:31N 39°53' W 075°11'0 0.0
2017-Aug-18 13:00N 39°53' W 075°11'0 0.0
2017-Aug-18 12:30N 39°53' W 075°11'0 0.0
2017-Aug-18 12:00N 39°53' W 075°11'0 0.0
2017-Aug-18 11:31N 39°53' W 075°11'0 0.0
2017-Aug-18 11:00N 39°53' W 075°11'0 0.0
2017-Aug-18 10:30N 39°53' W 075°11'0 0.0
2017-Aug-18 10:01N 39°53' W 075°11'0 0.0
2017-Aug-18 09:31N 39°53' W 075°11'0 0.0
2017-Aug-18 09:00N 39°53' W 075°11'0 0.0
2017-Aug-18 08:31N 39°53' W 075°11'0 0.0
2017-Aug-18 08:00N 39°53' W 075°11'0 0.0
2017-Aug-18 07:30N 39°53' W 075°11'0 0.0
2017-Aug-18 07:00N 39°53' W 075°11'0 0.0
2017-Aug-18 06:30N 39°53' W 075°11'0 0.0
2017-Aug-18 06:00N 39°53' W 075°11'0 0.0
2017-Aug-18 05:30N 39°53' W 075°11'0 0.0
2017-Aug-18 05:01N 39°53' W 075°11'0 0.0
2017-Aug-18 04:30N 39°53' W 075°11'0 0.0
2017-Aug-18 04:00N 39°53' W 075°11'0 0.0
2017-Aug-18 03:30N 39°53' W 075°11'0 0.0
2017-Aug-18 03:00N 39°53' W 075°11'0 0.0
2017-Aug-18 02:30N 39°53' W 075°11'0 0.0
2017-Aug-18 02:01N 39°53' W 075°11'0 0.0
2017-Aug-18 01:31N 39°53' W 075°11'0 0.0
2017-Aug-18 01:00N 39°53' W 075°11'0 0.0
2017-Aug-18 00:30N 39°53' W 075°11'0 0.0
2017-Aug-18 00:00N 39°53' W 075°11'0 0.9
2017-Aug-17 23:30N 39°53' W 075°11'2 4.6
2017-Aug-17 23:00N 39°54' W 075°08'2 4.1
2017-Aug-17 22:31N 39°53' W 075°10'1 1.4
2017-Aug-17 22:00N 39°53' W 075°11'0 0.0
2017-Aug-17 21:31N 39°53' W 075°11'0 0.0
2017-Aug-17 21:01N 39°53' W 075°11'0 0.0
2017-Aug-17 20:31N 39°53' W 075°11'0 0.0
2017-Aug-17 20:01N 39°53' W 075°11'0 0.0
2017-Aug-17 19:30N 39°53' W 075°11'0 0.0
2017-Aug-17 19:00N 39°53' W 075°11'2 4.6
2017-Aug-17 18:31N 39°54' W 075°08'5 9.4
2017-Aug-17 18:00N 39°58' W 075°07'2 4.1
2017-Aug-17 17:31N 39°59' W 075°04'3 6.2
2017-Aug-17 17:01N 39°58' W 075°08'3 6.1
2017-Aug-17 16:30N 39°55' W 075°08'3 5.7
2017-Aug-17 16:01N 39°53' W 075°11'0 0.0
2017-Aug-17 15:31N 39°53' W 075°11'0 0.0
2017-Aug-17 15:00N 39°53' W 075°11'0 0.0
2017-Aug-17 14:31N 39°53' W 075°11'0 0.0
2017-Aug-17 14:00N 39°53' W 075°11'0 0.0
2017-Aug-17 13:30N 39°53' W 075°11'0 0.0
2017-Aug-17 13:01N 39°53' W 075°11'0 0.0
2017-Aug-17 12:30N 39°53' W 075°11'0 0.0
2017-Aug-17 12:00N 39°53' W 075°11'0 0.0
2017-Aug-17 11:31N 39°53' W 075°11'0 0.0
2017-Aug-17 11:00N 39°53' W 075°11'0 0.0
2017-Aug-17 10:31N 39°53' W 075°11'0 0.0
2017-Aug-17 10:01N 39°53' W 075°11'0 0.0
2017-Aug-17 09:31N 39°53' W 075°11'0 0.0
2017-Aug-17 09:01N 39°53' W 075°11'0 0.0
2017-Aug-17 08:31N 39°53' W 075°11'0 0.0
2017-Aug-17 08:00N 39°53' W 075°11'0 0.0
2017-Aug-17 07:30N 39°53' W 075°11'0 0.0
2017-Aug-17 07:00N 39°53' W 075°11'0 0.0
2017-Aug-17 06:30N 39°53' W 075°11'0 0.0
2017-Aug-17 06:01N 39°53' W 075°11'0 0.0
2017-Aug-17 05:30N 39°53' W 075°11'0 0.0
2017-Aug-17 05:01N 39°53' W 075°11'0 0.0
2017-Aug-17 04:30N 39°53' W 075°11'0 0.0
2017-Aug-17 04:00N 39°53' W 075°11'0 0.0
2017-Aug-17 03:30N 39°53' W 075°11'0 0.0
2017-Aug-17 03:00N 39°53' W 075°11'0 0.0
2017-Aug-17 02:30N 39°53' W 075°11'0 0.0
2017-Aug-17 02:00N 39°53' W 075°11'0 0.0
2017-Aug-17 01:30N 39°53' W 075°11'0 0.0
2017-Aug-17 01:00N 39°53' W 075°11'0 0.0
2017-Aug-17 00:31N 39°53' W 075°11'2 3.5
2017-Aug-17 00:00N 39°52' W 075°13'0 0.1
2017-Aug-16 23:30N 39°52' W 075°13'1 2.2
2017-Aug-16 23:01N 39°53' W 075°12'1 1.4
2017-Aug-16 22:30N 39°53' W 075°11'0 0.0
2017-Aug-16 22:00N 39°53' W 075°11'0 0.0
2017-Aug-16 21:30N 39°53' W 075°11'0 0.0
2017-Aug-16 21:00N 39°53' W 075°11'0 0.0
2017-Aug-16 20:30N 39°53' W 075°11'0 0.0
2017-Aug-16 20:00N 39°53' W 075°11'0 0.0
2017-Aug-16 19:31N 39°53' W 075°11'0 0.0
2017-Aug-16 19:00N 39°53' W 075°11'0 0.0
2017-Aug-16 18:31N 39°53' W 075°11'0 0.0
2017-Aug-16 18:00N 39°53' W 075°11'0 0.0
2017-Aug-16 17:30N 39°53' W 075°11'0 0.0
2017-Aug-16 17:01N 39°53' W 075°11'0 0.0
2017-Aug-16 16:30N 39°53' W 075°11'1 2.7
2017-Aug-16 16:01N 39°52' W 075°13'3 6.4
2017-Aug-16 15:30N 39°51' W 075°16'0 0.0
2017-Aug-16 15:00N 39°51' W 075°16'0 0.3
2017-Aug-16 14:30N 39°51' W 075°16'2 3.8
2017-Aug-16 14:01N 39°51' W 075°19'1 2.7
2017-Aug-16 13:30N 39°51' W 075°21'0 0.0
2017-Aug-16 13:00N 39°51' W 075°21'0 0.0
2017-Aug-16 12:31N 39°51' W 075°21'0 0.0
2017-Aug-16 12:01N 39°51' W 075°21'0 0.0
2017-Aug-16 11:31N 39°51' W 075°21'0 0.0
2017-Aug-16 11:01N 39°51' W 075°21'4 7.6
2017-Aug-16 10:31N 39°49' W 075°24'0 0.0
2017-Aug-16 10:00N 39°49' W 075°24'0 0.0
2017-Aug-16 09:31N 39°49' W 075°24'0 0.0
2017-Aug-16 09:01N 39°49' W 075°24'0 0.7
2017-Aug-16 08:31N 39°48' W 075°24'0 0.2
2017-Aug-16 08:01N 39°48' W 075°24'1 2.4
2017-Aug-16 07:30N 39°48' W 075°26'0 0.0
2017-Aug-16 07:00N 39°48' W 075°26'0 0.0
2017-Aug-16 06:30N 39°48' W 075°26'0 0.0
2017-Aug-16 06:00N 39°48' W 075°26'0 0.0
2017-Aug-16 05:30N 39°48' W 075°26'0 0.0
2017-Aug-16 05:01N 39°48' W 075°26'0 0.0
2017-Aug-16 04:30N 39°48' W 075°26'0 0.0
2017-Aug-16 04:00N 39°48' W 075°26'0 0.0
2017-Aug-16 03:30N 39°48' W 075°26'0 0.0
2017-Aug-16 03:00N 39°48' W 075°26'0 0.0
2017-Aug-16 02:30N 39°48' W 075°26'3 5.9
2017-Aug-16 02:01N 39°50' W 075°23'612.0
2017-Aug-16 01:30N 39°51' W 075°15'4 7.6
2017-Aug-16 01:00N 39°53' W 075°11'0 0.4
2017-Aug-16 00:30N 39°53' W 075°11'2 3.8
2017-Aug-16 00:00N 39°52' W 075°13'0 0.0
2017-Aug-15 23:30N 39°52' W 075°13'0 0.0
2017-Aug-15 23:01N 39°52' W 075°13'0 0.4
2017-Aug-15 22:31N 39°52' W 075°13'3 5.2
2017-Aug-15 22:00N 39°51' W 075°16'4 8.5
2017-Aug-15 21:31N 39°50' W 075°22'4 8.1
2017-Aug-15 21:00N 39°48' W 075°26'5 9.4
2017-Aug-15 20:31N 39°44' W 075°30'1 2.7
2017-Aug-15 20:00N 39°43' W 075°31'0 0.0
2017-Aug-15 19:30N 39°43' W 075°31'0 0.0
2017-Aug-15 19:00N 39°43' W 075°31'0 0.0
2017-Aug-15 18:30N 39°43' W 075°31'0 0.0
2017-Aug-15 18:00N 39°43' W 075°31'0 0.0
2017-Aug-15 17:30N 39°43' W 075°31'0 0.0
2017-Aug-15 17:00N 39°43' W 075°31'0 0.0
2017-Aug-15 16:30N 39°43' W 075°31'0 0.0
2017-Aug-15 16:00N 39°43' W 075°31'0 0.0
2017-Aug-15 15:30N 39°43' W 075°31'0 0.0
2017-Aug-15 15:00N 39°43' W 075°31'0 0.0
2017-Aug-15 14:30N 39°43' W 075°31'0 0.0
2017-Aug-15 14:00N 39°43' W 075°31'0 0.0
2017-Aug-15 13:30N 39°43' W 075°31'0 0.0
2017-Aug-15 13:00N 39°43' W 075°31'0 0.0
2017-Aug-15 12:30N 39°43' W 075°31'0 0.0
2017-Aug-15 12:00N 39°43' W 075°31'0 0.0
2017-Aug-15 11:30N 39°43' W 075°31'0 0.0
2017-Aug-15 11:00N 39°43' W 075°31'0 0.0
2017-Aug-15 10:30N 39°43' W 075°31'1 2.6
2017-Aug-15 10:00N 39°44' W 075°30'510.9
2017-Aug-15 09:31N 39°48' W 075°25'0 0.6
2017-Aug-15 09:00N 39°48' W 075°25'1 1.4
2017-Aug-15 08:30N 39°49' W 075°24'1 1.5
2017-Aug-15 08:01N 39°49' W 075°23'1 2.1
2017-Aug-15 07:30N 39°49' W 075°25'5 9.8
2017-Aug-15 07:00N 39°51' W 075°19'510.9
2017-Aug-15 06:31N 39°52' W 075°12'1 2.5
2017-Aug-15 06:01N 39°53' W 075°11'0 0.0
2017-Aug-15 05:30N 39°53' W 075°11'0 0.0
2017-Aug-15 05:00N 39°53' W 075°11'0 0.0
2017-Aug-15 04:31N 39°53' W 075°11'0 0.0
2017-Aug-15 04:00N 39°53' W 075°11'0 0.0
2017-Aug-15 03:30N 39°53' W 075°11'0 0.0
2017-Aug-15 03:00N 39°53' W 075°11'0 0.0
2017-Aug-15 02:31N 39°53' W 075°11'0 0.0
2017-Aug-15 02:00N 39°53' W 075°11'0 0.0
2017-Aug-15 01:31N 39°53' W 075°11'0 0.0
2017-Aug-15 01:01N 39°53' W 075°11'0 0.0
2017-Aug-15 00:31N 39°53' W 075°11'0 0.0
2017-Aug-15 00:00N 39°53' W 075°11'0 0.0
2017-Aug-14 23:31N 39°53' W 075°11'2 3.8
2017-Aug-14 23:00N 39°52' W 075°13'2 3.3
2017-Aug-14 22:31N 39°51' W 075°15'1 1.4
2017-Aug-14 22:00N 39°51' W 075°16'0 0.0
2017-Aug-14 21:31N 39°51' W 075°16'0 0.0
2017-Aug-14 21:01N 39°51' W 075°16'0 0.0
2017-Aug-14 20:30N 39°51' W 075°16'0 0.3
2017-Aug-14 20:01N 39°51' W 075°16'0 0.3
2017-Aug-14 19:31N 39°51' W 075°16'0 0.0
2017-Aug-14 19:00N 39°51' W 075°16'0 0.0
2017-Aug-14 18:30N 39°51' W 075°16'0 0.0
2017-Aug-14 18:00N 39°51' W 075°16'0 0.0
2017-Aug-14 17:30N 39°51' W 075°16'0 0.0
2017-Aug-14 17:01N 39°51' W 075°16'0 0.0
2017-Aug-14 16:31N 39°51' W 075°16'0 0.0
2017-Aug-14 16:00N 39°51' W 075°16'0 0.0
2017-Aug-14 15:31N 39°51' W 075°16'0 0.0
2017-Aug-14 15:00N 39°51' W 075°16'0 0.7
2017-Aug-14 14:30N 39°51' W 075°16'0 0.0
2017-Aug-14 14:00N 39°51' W 075°16'0 0.4
2017-Aug-14 13:31N 39°51' W 075°16'2 4.2
2017-Aug-14 13:00N 39°51' W 075°19'2 4.6
2017-Aug-14 12:31N 39°51' W 075°16'0 0.6
2017-Aug-14 12:00N 39°51' W 075°16'0 0.4
2017-Aug-14 11:30N 39°51' W 075°16'0 0.0
2017-Aug-14 11:00N 39°51' W 075°16'0 0.0
2017-Aug-14 10:30N 39°51' W 075°16'0 0.0
2017-Aug-14 10:01N 39°51' W 075°16'0 0.4
2017-Aug-14 09:31N 39°51' W 075°16'0 0.1
2017-Aug-14 09:00N 39°51' W 075°16'1 2.0
2017-Aug-14 08:30N 39°51' W 075°15'2 4.8
2017-Aug-14 08:01N 39°52' W 075°12'1 2.5
2017-Aug-14 07:31N 39°53' W 075°11'0 0.0
2017-Aug-14 07:00N 39°53' W 075°11'0 0.0
2017-Aug-14 06:31N 39°53' W 075°11'0 0.0
2017-Aug-14 06:01N 39°53' W 075°11'0 0.0
2017-Aug-14 05:30N 39°53' W 075°11'0 0.0
2017-Aug-14 05:00N 39°53' W 075°11'0 0.0
2017-Aug-14 04:30N 39°53' W 075°11'0 0.0
2017-Aug-14 04:00N 39°53' W 075°11'0 0.0
2017-Aug-14 03:30N 39°53' W 075°11'0 0.0
2017-Aug-14 03:00N 39°53' W 075°11'0 0.0
2017-Aug-14 02:31N 39°53' W 075°11'0 0.0
2017-Aug-14 02:01N 39°53' W 075°11'0 0.0
2017-Aug-14 01:31N 39°53' W 075°11'0 0.0
2017-Aug-14 01:00N 39°53' W 075°11'0 0.0
2017-Aug-14 00:30N 39°53' W 075°11'0 0.0
2017-Aug-14 00:00N 39°53' W 075°11'0 0.0
2017-Aug-13 23:30N 39°53' W 075°11'0 0.4
2017-Aug-13 23:00N 39°53' W 075°11'0 0.3
2017-Aug-13 22:31N 39°53' W 075°11'2 4.1
2017-Aug-13 22:01N 39°52' W 075°13'0 0.0
2017-Aug-13 21:30N 39°52' W 075°13'0 0.0
2017-Aug-13 21:00N 39°52' W 075°13'0 0.2
2017-Aug-13 20:30N 39°52' W 075°13'1 1.7
2017-Aug-13 20:00N 39°52' W 075°12'1 2.3
2017-Aug-13 19:30N 39°53' W 075°11'1 2.9
2017-Aug-13 19:00N 39°53' W 075°09'1 2.6
2017-Aug-13 18:30N 39°54' W 075°08'3 5.6
2017-Aug-13 18:00N 39°56' W 075°08'4 7.3
2017-Aug-13 17:30N 39°59' W 075°04'0 0.1
2017-Aug-13 17:01N 39°59' W 075°04'1 2.4
2017-Aug-13 16:30N 39°59' W 075°06'0 0.2
2017-Aug-13 16:00N 39°59' W 075°06'0 0.0
2017-Aug-13 15:30N 39°59' W 075°06'0 0.0
2017-Aug-13 15:00N 39°59' W 075°06'0 0.0
2017-Aug-13 14:31N 39°59' W 075°06'2 4.3
2017-Aug-13 14:00N 39°57' W 075°08'3 6.5
2017-Aug-13 13:31N 39°54' W 075°08'4 7.4
2017-Aug-13 13:01N 39°52' W 075°12'3 6.6
2017-Aug-13 12:31N 39°51' W 075°16'0 0.0
2017-Aug-13 12:00N 39°51' W 075°16'0 0.0
2017-Aug-13 11:30N 39°51' W 075°16'1 1.4
2017-Aug-13 11:01N 39°51' W 075°17'1 1.4
2017-Aug-13 10:30N 39°51' W 075°16'0 0.2
2017-Aug-13 10:01N 39°51' W 075°16'2 3.8
2017-Aug-13 09:30N 39°51' W 075°14'0 0.2
2017-Aug-13 09:00N 39°51' W 075°14'0 0.0
2017-Aug-13 08:30N 39°51' W 075°14'0 0.0
2017-Aug-13 08:00N 39°51' W 075°14'0 0.3
2017-Aug-13 07:31N 39°51' W 075°14'1 2.3
2017-Aug-13 07:01N 39°52' W 075°13'0 0.3
2017-Aug-13 06:31N 39°52' W 075°13'2 4.1
2017-Aug-13 06:00N 39°51' W 075°15'3 6.4
2017-Aug-13 05:30N 39°51' W 075°19'3 6.0
2017-Aug-13 05:01N 39°49' W 075°23'3 5.3
2017-Aug-13 04:30N 39°48' W 075°26'0 0.0
2017-Aug-13 04:00N 39°48' W 075°26'0 0.0
2017-Aug-13 03:30N 39°48' W 075°26'0 0.0
2017-Aug-13 03:00N 39°48' W 075°26'0 0.0
2017-Aug-13 02:30N 39°48' W 075°26'0 0.0
2017-Aug-13 02:00N 39°48' W 075°26'0 0.0
2017-Aug-13 01:31N 39°48' W 075°26'0 0.0
2017-Aug-13 01:00N 39°48' W 075°26'0 0.0
2017-Aug-13 00:31N 39°48' W 075°26'1 1.9
2017-Aug-13 00:00N 39°48' W 075°25'1 2.1
2017-Aug-12 23:31N 39°49' W 075°24'2 4.8
2017-Aug-12 23:00N 39°51' W 075°21'4 8.7
2017-Aug-12 22:30N 39°51' W 075°16'5 9.3
2017-Aug-12 22:00N 39°53' W 075°10'3 6.9
2017-Aug-12 21:31N 39°56' W 075°08'3 6.3
2017-Aug-12 21:00N 39°59' W 075°06'1 1.9
2017-Aug-12 20:30N 39°59' W 075°04'0 0.0
2017-Aug-12 20:01N 39°59' W 075°04'0 0.0
2017-Aug-12 19:30N 39°59' W 075°04'0 0.1
2017-Aug-12 19:00N 39°59' W 075°04'1 1.6
2017-Aug-12 18:30N 39°59' W 075°05'0 0.0
2017-Aug-12 18:00N 39°59' W 075°05'0 0.0
2017-Aug-12 17:30N 39°59' W 075°05'0 0.0
2017-Aug-12 17:01N 39°59' W 075°05'0 0.0
2017-Aug-12 16:30N 39°59' W 075°05'0 0.0
2017-Aug-12 16:00N 39°59' W 075°05'0 0.0
2017-Aug-12 15:31N 39°59' W 075°05'0 0.0
2017-Aug-12 15:01N 39°59' W 075°05'0 0.0
2017-Aug-12 14:31N 39°59' W 075°05'0 0.0
2017-Aug-12 14:00N 39°59' W 075°05'0 0.0
2017-Aug-12 13:30N 39°59' W 075°05'0 0.0
2017-Aug-12 13:01N 39°59' W 075°05'0 0.0
2017-Aug-12 12:30N 39°59' W 075°05'1 1.0
2017-Aug-12 12:00N 39°58' W 075°06'3 6.1
2017-Aug-12 11:30N 39°56' W 075°08'3 6.4
2017-Aug-12 11:00N 39°53' W 075°09'0 0.3
2017-Aug-12 10:31N 39°53' W 075°09'0 0.2
2017-Aug-12 10:01N 39°53' W 075°10'2 3.4
2017-Aug-12 09:30N 39°53' W 075°12'1 1.5
2017-Aug-12 09:00N 39°54' W 075°12'0 0.8
2017-Aug-12 08:30N 39°54' W 075°12'1 2.2
2017-Aug-12 08:00N 39°53' W 075°11'0 0.0
2017-Aug-12 07:30N 39°53' W 075°11'0 0.0
2017-Aug-12 07:00N 39°53' W 075°11'0 0.0
2017-Aug-12 06:30N 39°53' W 075°11'0 0.0
2017-Aug-12 06:00N 39°53' W 075°11'0 0.0
2017-Aug-12 05:30N 39°53' W 075°11'0 0.0
2017-Aug-12 05:00N 39°53' W 075°11'0 0.0
2017-Aug-12 04:30N 39°53' W 075°11'0 0.0
2017-Aug-12 04:00N 39°53' W 075°11'0 0.0
2017-Aug-12 03:30N 39°53' W 075°11'0 0.0
2017-Aug-12 03:01N 39°53' W 075°11'0 0.0
2017-Aug-12 02:30N 39°53' W 075°11'0 0.0
2017-Aug-12 02:00N 39°53' W 075°11'0 0.0
2017-Aug-12 01:30N 39°53' W 075°11'0 0.0
2017-Aug-12 01:01N 39°53' W 075°11'0 0.0
2017-Aug-12 00:30N 39°53' W 075°11'0 0.0
2017-Aug-12 00:00N 39°53' W 075°11'0 0.0
2017-Aug-11 23:30N 39°53' W 075°11'2 3.7
2017-Aug-11 23:00N 39°52' W 075°13'0 0.1
2017-Aug-11 22:30N 39°52' W 075°13'1 1.4
2017-Aug-11 22:01N 39°53' W 075°12'1 2.3
2017-Aug-11 21:30N 39°53' W 075°11'0 0.0
2017-Aug-11 21:00N 39°53' W 075°11'0 0.0
2017-Aug-11 20:30N 39°53' W 075°11'0 0.0
2017-Aug-11 20:00N 39°53' W 075°11'0 0.0
2017-Aug-11 19:31N 39°53' W 075°11'0 0.0
2017-Aug-11 19:00N 39°53' W 075°11'0 0.0
2017-Aug-11 18:30N 39°53' W 075°11'0 0.0
2017-Aug-11 18:00N 39°53' W 075°11'0 0.0
2017-Aug-11 17:31N 39°53' W 075°11'0 0.0
2017-Aug-11 17:00N 39°53' W 075°11'0 0.0
2017-Aug-11 16:30N 39°53' W 075°11'0 0.0
2017-Aug-11 16:00N 39°53' W 075°11'0 0.0
2017-Aug-11 15:30N 39°53' W 075°11'0 0.0
2017-Aug-11 15:00N 39°53' W 075°11'0 0.0
2017-Aug-11 14:00N 39°53' W 075°11'0 0.0
2017-Aug-11 13:30N 39°53' W 075°11'0 0.0
2017-Aug-11 13:00N 39°53' W 075°11'0 0.0
2017-Aug-11 12:30N 39°53' W 075°11'0 1.0
2017-Aug-11 12:01N 39°53' W 075°11'2 4.5
2017-Aug-11 11:30N 39°54' W 075°08'1 1.5
2017-Aug-11 11:01N 39°53' W 075°08'2 4.1
2017-Aug-11 10:31N 39°53' W 075°11'0 0.8
2017-Aug-11 10:00N 39°53' W 075°11'0 0.0
2017-Aug-11 09:30N 39°53' W 075°11'0 0.0
2017-Aug-11 09:01N 39°53' W 075°11'0 0.0
2017-Aug-11 08:30N 39°53' W 075°11'0 0.0
2017-Aug-11 08:01N 39°53' W 075°11'0 0.0
2017-Aug-11 07:31N 39°53' W 075°11'0 0.0
2017-Aug-11 07:00N 39°53' W 075°11'0 0.0
2017-Aug-11 06:31N 39°53' W 075°11'0 0.0
2017-Aug-11 06:01N 39°53' W 075°11'0 0.0
2017-Aug-11 05:30N 39°53' W 075°11'0 0.0
2017-Aug-11 05:01N 39°53' W 075°11'0 0.0
2017-Aug-11 04:30N 39°53' W 075°11'0 0.0
2017-Aug-11 04:00N 39°53' W 075°11'0 0.0
2017-Aug-11 03:31N 39°53' W 075°11'0 0.0
2017-Aug-11 03:00N 39°53' W 075°11'0 0.0
2017-Aug-11 02:31N 39°53' W 075°11'0 0.0
2017-Aug-11 02:00N 39°53' W 075°11'0 0.0
2017-Aug-11 01:30N 39°53' W 075°11'0 0.0
2017-Aug-11 01:00N 39°53' W 075°11'0 0.0
2017-Aug-11 00:30N 39°53' W 075°11'0 0.0
2017-Aug-11 00:00N 39°53' W 075°11'0 0.0
2017-Aug-10 23:30N 39°53' W 075°11'0 0.0
2017-Aug-10 23:01N 39°53' W 075°11'0 0.0
2017-Aug-10 22:30N 39°53' W 075°11'1 1.6
2017-Aug-10 22:00N 39°54' W 075°12'0 0.7
2017-Aug-10 21:30N 39°54' W 075°12'1 2.0
2017-Aug-10 21:00N 39°53' W 075°12'3 5.4
2017-Aug-10 20:30N 39°51' W 075°15'1 1.8
2017-Aug-10 20:00N 39°51' W 075°16'0 0.0
2017-Aug-10 19:30N 39°51' W 075°16'0 0.8
2017-Aug-10 19:00N 39°51' W 075°16'3 5.3
2017-Aug-10 18:30N 39°52' W 075°13'2 4.0
2017-Aug-10 18:01N 39°53' W 075°11'0 0.0
2017-Aug-10 17:30N 39°53' W 075°11'0 0.0
2017-Aug-10 17:00N 39°53' W 075°11'0 0.0
2017-Aug-10 16:30N 39°53' W 075°11'0 0.0
2017-Aug-10 16:00N 39°53' W 075°11'0 0.0
2017-Aug-10 15:30N 39°53' W 075°11'0 0.0
2017-Aug-10 15:00N 39°53' W 075°11'0 0.0
2017-Aug-10 14:30N 39°53' W 075°11'0 0.0
2017-Aug-10 14:00N 39°53' W 075°11'0 0.0
2017-Aug-10 13:31N 39°53' W 075°11'0 0.0
2017-Aug-10 13:01N 39°53' W 075°11'0 0.0
2017-Aug-10 12:30N 39°53' W 075°11'0 0.1
2017-Aug-10 12:01N 39°53' W 075°11'4 8.2
2017-Aug-10 11:30N 39°57' W 075°08'4 7.7
2017-Aug-10 11:00N 39°59' W 075°04'0 0.0
2017-Aug-10 10:30N 39°59' W 075°04'0 0.5
2017-Aug-10 10:00N 39°59' W 075°04'0 0.0
2017-Aug-10 09:30N 39°59' W 075°04'0 0.0
2017-Aug-10 09:00N 39°59' W 075°04'0 0.2
2017-Aug-10 08:31N 39°59' W 075°04'1 1.5
2017-Aug-10 08:00N 39°59' W 075°05'2 4.7
2017-Aug-10 07:30N 39°57' W 075°08'2 3.1
2017-Aug-10 07:01N 39°58' W 075°06'1 2.9
2017-Aug-10 06:30N 39°57' W 075°08'5 9.5
2017-Aug-10 06:00N 39°53' W 075°10'5 9.8
2017-Aug-10 05:31N 39°51' W 075°16'0 0.1
2017-Aug-10 05:00N 39°51' W 075°16'3 5.3
2017-Aug-10 04:30N 39°52' W 075°13'2 3.4
2017-Aug-10 04:01N 39°53' W 075°11'0 0.0
2017-Aug-10 03:31N 39°53' W 075°11'0 0.0
2017-Aug-10 03:00N 39°53' W 075°11'0 0.0
2017-Aug-10 02:30N 39°53' W 075°11'0 0.0
2017-Aug-10 02:00N 39°53' W 075°11'0 0.0
2017-Aug-10 01:30N 39°53' W 075°11'0 0.0
2017-Aug-10 01:00N 39°53' W 075°11'0 0.0
2017-Aug-10 00:30N 39°53' W 075°11'0 0.0
2017-Aug-10 00:00N 39°53' W 075°11'0 0.0
2017-Aug-09 23:30N 39°53' W 075°11'0 0.0
2017-Aug-09 23:00N 39°53' W 075°11'0 0.0
2017-Aug-09 22:30N 39°53' W 075°11'0 0.0
2017-Aug-09 22:00N 39°53' W 075°11'0 0.0
2017-Aug-09 21:30N 39°53' W 075°11'0 0.0
2017-Aug-09 21:00N 39°53' W 075°11'0 0.0
2017-Aug-09 20:30N 39°53' W 075°11'0 0.0
2017-Aug-09 20:00N 39°53' W 075°11'0 0.0
2017-Aug-09 19:30N 39°53' W 075°11'0 0.0
2017-Aug-09 19:00N 39°53' W 075°11'0 0.0
2017-Aug-09 18:30N 39°53' W 075°11'0 0.0
2017-Aug-09 18:00N 39°53' W 075°11'0 0.0
2017-Aug-09 17:30N 39°53' W 075°11'0 0.0
2017-Aug-09 17:00N 39°53' W 075°11'0 0.0
2017-Aug-09 16:30N 39°53' W 075°11'0 0.0
2017-Aug-09 16:00N 39°53' W 075°11'0 0.0
2017-Aug-09 15:30N 39°53' W 075°11'0 0.0
2017-Aug-09 15:00N 39°53' W 075°11'0 0.0
2017-Aug-09 14:30N 39°53' W 075°11'1 2.0
2017-Aug-09 14:00N 39°53' W 075°12'3 6.1
2017-Aug-09 13:30N 39°51' W 075°16'2 4.4
2017-Aug-09 13:00N 39°52' W 075°13'1 1.6
2017-Aug-09 12:30N 39°52' W 075°14'2 3.5
2017-Aug-09 12:00N 39°51' W 075°16'0 0.0
2017-Aug-09 11:30N 39°51' W 075°16'0 0.2
2017-Aug-09 11:00N 39°51' W 075°16'0 0.2
2017-Aug-09 10:30N 39°51' W 075°16'1 1.5
2017-Aug-09 10:00N 39°51' W 075°17'  

Dump ship's entire track history